Hesston, Pennsylvania
Current Conditions -  °F | °C
As of 11:53 AM on Friday 31 Oct 2014 (Local Time) from KAOO Reporting Station
Overcast Overcast  
Wind Chill: 43°   Ceiling: 4900
Heat Index: 45°   Visibility: 10mi
Dew Point: 37°   Wind: 5mph
Humidity: 74%   Direction: 160°SSE
Pressure: 29.93"   Gusts: NA
Location:  40.42°N, 78.11°W
Report Text: KAOO 311553Z AUTO 16004KT 10SM SCT024 OVC049 07/03 A2993 RMK AO2 SLP144 T00720028 $
Loading
Personal Weather Stations






























Interactive Weather Map
Tropical Storm Tracking
New forecast layout! Learn more

10-Day Weather Forecast

Advertisements
Track Severe Weather on mobile